Time,TemperatureF,DewpointF,PressureIn,WindDirection,WindDirectionDegrees,WindSpeedMPH,WindSpeedGustMPH,Humidity,HourlyPrecipIn,Conditions,Clouds,dailyrainin,SoftwareType,DateUTC
2013-07-27 00:12:00,89.0,65.0,29.86,NW,321,1.0,-999.0,46,-99.99,,,-99.99,,2013-07-27 07:12:00,
2013-07-27 00:33:00,89.0,67.0,29.85,NNW,340,1.0,-999.0,48,-99.99,,,-99.99,,2013-07-27 07:33:00,
2013-07-27 01:43:00,87.0,65.0,29.85,East,79,2.0,-999.0,49,-99.99,,,-99.99,,2013-07-27 08:43:00,
2013-07-27 01:53:00,86.0,65.0,29.85,East,80,1.0,-999.0,49,-99.99,,,-99.99,,2013-07-27 08:53:00,
2013-07-27 02:01:00,86.0,65.0,29.85,East,80,1.0,-999.0,49,-99.99,,,-99.99,,2013-07-27 09:01:00,
2013-07-27 02:11:00,86.0,65.0,29.85,East,81,2.0,-999.0,50,-99.99,,,-99.99,,2013-07-27 09:11:00,
2013-07-27 02:22:00,86.0,65.0,29.85,East,81,2.0,-999.0,50,-99.99,,,-99.99,,2013-07-27 09:22:00,
2013-07-27 02:33:00,85.0,65.0,29.85,East,81,1.0,-999.0,51,-99.99,,,-99.99,,2013-07-27 09:33:00,
2013-07-27 03:02:00,85.0,66.0,29.85,East,80,2.0,-999.0,54,-99.99,,,-99.99,,2013-07-27 10:02:00,
2013-07-27 03:12:00,85.0,66.0,29.85,East,84,3.0,-999.0,54,-99.99,,,-99.99,,2013-07-27 10:12:00,
2013-07-27 03:43:00,85.0,65.0,29.85,East,86,2.0,-999.0,52,-99.99,,,-99.99,,2013-07-27 10:43:00,
2013-07-27 03:52:00,85.0,65.0,29.85,East,86,2.0,-999.0,52,-99.99,,,-99.99,,2013-07-27 10:52:00,
2013-07-27 04:01:00,84.0,63.0,29.85,East,86,2.0,-999.0,50,-99.99,,,-99.99,,2013-07-27 11:01:00,
2013-07-27 04:32:00,85.0,64.0,29.85,East,86,0.0,-999.0,49,-99.99,,,-99.99,,2013-07-27 11:32:00,
2013-07-27 04:43:00,85.0,66.0,29.85,East,85,0.0,-999.0,54,-99.99,,,-99.99,,2013-07-27 11:43:00,
2013-07-27 04:52:00,85.0,66.0,29.85,East,85,0.0,-999.0,54,-99.99,,,-99.99,,2013-07-27 11:52:00,
2013-07-27 05:02:00,85.0,65.0,29.85,East,85,0.0,-999.0,52,-99.99,,,-99.99,,2013-07-27 12:02:00,
2013-07-27 05:12:00,84.0,62.0,29.85,East,85,0.0,-999.0,48,-99.99,,,-99.99,,2013-07-27 12:12:00,
2013-07-27 05:33:00,84.0,62.0,29.85,East,86,0.0,-999.0,48,-99.99,,,-99.99,,2013-07-27 12:33:00,
2013-07-27 05:43:00,83.0,64.0,29.86,East,86,0.0,-999.0,53,-99.99,,,-99.99,,2013-07-27 12:43:00,
2013-07-27 05:52:00,83.0,64.0,29.86,East,86,0.0,-999.0,53,-99.99,,,-99.99,,2013-07-27 12:52:00,
2013-07-27 06:02:00,83.0,66.0,29.86,East,86,0.0,-999.0,56,-99.99,,,-99.99,,2013-07-27 13:02:00,
2013-07-27 06:32:00,82.0,65.0,29.86,East,86,0.0,-999.0,57,-99.99,,,-99.99,,2013-07-27 13:32:00,
2013-07-27 07:43:00,85.0,68.0,29.87,ESE,122,5.0,-999.0,57,-99.99,,,-99.99,,2013-07-27 14:43:00,
2013-07-27 07:53:00,85.0,68.0,29.87,ESE,122,5.0,-999.0,57,-99.99,,,-99.99,,2013-07-27 14:53:00,
2013-07-27 08:02:00,86.0,68.0,29.86,ESE,122,0.0,-999.0,55,-99.99,,,-99.99,,2013-07-27 15:02:00,
2013-07-27 08:12:00,88.0,69.0,29.86,ESE,122,0.0,-999.0,54,-99.99,,,-99.99,,2013-07-27 15:12:00,
2013-07-27 08:33:00,89.0,70.0,29.86,ESE,122,0.0,-999.0,53,-99.99,,,-99.99,,2013-07-27 15:33:00,
2013-07-27 08:44:00,90.0,70.0,29.86,ESE,122,3.0,-999.0,52,-99.99,,,-99.99,,2013-07-27 15:44:00,
2013-07-27 08:53:00,90.0,70.0,29.86,ESE,122,3.0,-999.0,52,-99.99,,,-99.99,,2013-07-27 15:53:00,
2013-07-27 09:02:00,91.0,70.0,29.86,ESE,113,6.0,-999.0,50,-99.99,,,-99.99,,2013-07-27 16:02:00,
2013-07-27 09:22:00,93.0,68.0,29.86,ESE,104,6.0,-999.0,45,-99.99,,,-99.99,,2013-07-27 16:22:00,
2013-07-27 09:33:00,94.0,68.0,29.86,ESE,108,6.0,-999.0,43,-99.99,,,-99.99,,2013-07-27 16:33:00,
2013-07-27 09:43:00,95.0,65.0,29.85,East,96,5.0,-999.0,37,-99.99,,,-99.99,,2013-07-27 16:43:00,
2013-07-27 09:53:00,95.0,65.0,29.85,East,96,5.0,-999.0,37,-99.99,,,-99.99,,2013-07-27 16:53:00,
2013-07-27 10:02:00,97.0,65.0,29.85,ESE,113,4.0,-999.0,35,-99.99,,,-99.99,,2013-07-27 17:02:00,
2013-07-27 10:12:00,98.0,66.0,29.85,ESE,123,3.0,-999.0,36,-99.99,,,-99.99,,2013-07-27 17:12:00,
2013-07-27 10:22:00,98.0,66.0,29.85,ESE,123,3.0,-999.0,36,-99.99,,,-99.99,,2013-07-27 17:22:00,
2013-07-27 10:32:00,99.0,66.0,29.85,ESE,106,3.0,-999.0,35,-99.99,,,-99.99,,2013-07-27 17:32:00,
2013-07-27 10:43:00,100.0,65.0,29.85,ESE,113,1.0,-999.0,32,-99.99,,,-99.99,,2013-07-27 17:43:00,
2013-07-27 10:53:00,101.0,67.0,29.84,SE,128,2.0,-999.0,33,-99.99,,,-99.99,,2013-07-27 17:53:00,
2013-07-27 11:02:00,101.0,67.0,29.84,SE,128,2.0,-999.0,33,-99.99,,,-99.99,,2013-07-27 18:02:00,
2013-07-27 11:12:00,102.0,64.0,29.84,SE,128,0.0,-999.0,29,-99.99,,,-99.99,,2013-07-27 18:12:00,
2013-07-27 11:22:00,102.0,64.0,29.84,SE,128,0.0,-999.0,29,-99.99,,,-99.99,,2013-07-27 18:22:00,
2013-07-27 11:32:00,102.0,67.0,29.84,SE,128,0.0,-999.0,32,-99.99,,,-99.99,,2013-07-27 18:32:00,
2013-07-27 11:42:00,102.0,64.0,29.83,SE,128,1.0,-999.0,29,-99.99,,,-99.99,,2013-07-27 18:42:00,
2013-07-27 11:52:00,102.0,64.0,29.83,SE,128,1.0,-999.0,29,-99.99,,,-99.99,,2013-07-27 18:52:00,
2013-07-27 12:12:00,102.0,63.0,29.82,ESE,102,0.0,-999.0,28,-99.99,,,-99.99,,2013-07-27 19:12:00,
2013-07-27 12:22:00,102.0,63.0,29.82,ESE,102,0.0,-999.0,28,-99.99,,,-99.99,,2013-07-27 19:22:00,
2013-07-27 14:02:00,106.0,65.0,29.77,NW,315,1.0,-999.0,27,-99.99,,,-99.99,,2013-07-27 21:02:00,
2013-07-27 14:42:00,107.0,66.0,29.75,NW,315,1.0,-999.0,27,-99.99,,,-99.99,,2013-07-27 21:42:00,
2013-07-27 15:12:00,108.0,66.0,29.73,SSW,193,5.0,-999.0,26,-99.99,,,-99.99,,2013-07-27 22:12:00,
2013-07-27 15:32:00,109.0,66.0,29.72,WSW,242,3.0,-999.0,26,-99.99,,,-99.99,,2013-07-27 22:32:00,
2013-07-27 15:43:00,109.0,65.0,29.71,ESE,115,3.0,-999.0,25,-99.99,,,-99.99,,2013-07-27 22:43:00,
2013-07-27 16:02:00,108.0,66.0,29.70,WSW,243,4.0,-999.0,26,-99.99,,,-99.99,,2013-07-27 23:02:00,
2013-07-27 16:12:00,109.0,64.0,29.70,SSE,155,3.0,-999.0,24,-99.99,,,-99.99,,2013-07-27 23:12:00,
2013-07-27 16:32:00,109.0,65.0,29.69,SW,229,4.0,-999.0,25,-99.99,,,-99.99,,2013-07-27 23:32:00,
2013-07-27 16:44:00,108.0,67.0,29.69,West,262,3.0,-999.0,27,-99.99,,,-99.99,,2013-07-27 23:44:00,
2013-07-27 16:52:00,107.0,64.0,29.68,SSW,211,3.0,-999.0,25,-99.99,,,-99.99,,2013-07-27 23:52:00,
2013-07-27 17:02:00,107.0,64.0,29.68,SSW,211,3.0,-999.0,25,-99.99,,,-99.99,,2013-07-28 00:02:00,
2013-07-27 17:12:00,108.0,66.0,29.67,SW,223,4.0,-999.0,26,-99.99,,,-99.99,,2013-07-28 00:12:00,
2013-07-27 17:32:00,107.0,65.0,29.67,WSW,238,4.0,-999.0,26,-99.99,,,-99.99,,2013-07-28 00:32:00,
2013-07-27 17:52:00,107.0,64.0,29.66,SSE,160,6.0,-999.0,25,-99.99,,,-99.99,,2013-07-28 00:52:00,
2013-07-27 18:02:00,107.0,64.0,29.66,SSE,160,6.0,-999.0,25,-99.99,,,-99.99,,2013-07-28 01:02:00,
2013-07-27 18:12:00,107.0,64.0,29.66,WSW,237,5.0,-999.0,25,-99.99,,,-99.99,,2013-07-28 01:12:00,
2013-07-27 18:22:00,107.0,62.0,29.66,SW,225,2.0,-999.0,24,-99.99,,,-99.99,,2013-07-28 01:22:00,
2013-07-27 18:32:00,107.0,62.0,29.66,SW,225,2.0,-999.0,24,-99.99,,,-99.99,,2013-07-28 01:32:00,
2013-07-27 18:43:00,106.0,62.0,29.66,SW,232,4.0,-999.0,24,-99.99,,,-99.99,,2013-07-28 01:43:00,
2013-07-27 18:53:00,106.0,62.0,29.66,SW,232,4.0,-999.0,24,-99.99,,,-99.99,,2013-07-28 01:53:00,
2013-07-27 19:02:00,105.0,60.0,29.66,SSW,208,5.0,-999.0,23,-99.99,,,-99.99,,2013-07-28 02:02:00,
2013-07-27 19:12:00,104.0,60.0,29.66,SW,222,4.0,-999.0,24,-99.99,,,-99.99,,2013-07-28 02:12:00,
2013-07-27 19:32:00,103.0,59.0,29.66,SSW,207,4.0,-999.0,24,-99.99,,,-99.99,,2013-07-28 02:32:00,
2013-07-27 19:42:00,102.0,61.0,29.66,SSW,196,4.0,-999.0,26,-99.99,,,-99.99,,2013-07-28 02:42:00,
2013-07-27 19:53:00,101.0,61.0,29.66,South,191,6.0,-999.0,27,-99.99,,,-99.99,,2013-07-28 02:53:00,
2013-07-27 20:02:00,101.0,61.0,29.66,South,191,6.0,-999.0,27,-99.99,,,-99.99,,2013-07-28 03:02:00,
2013-07-27 20:12:00,100.0,60.0,29.67,SSW,194,4.0,-999.0,27,-99.99,,,-99.99,,2013-07-28 03:12:00,
2013-07-27 20:22:00,100.0,60.0,29.67,SSW,194,4.0,-999.0,27,-99.99,,,-99.99,,2013-07-28 03:22:00,
2013-07-27 20:32:00,99.0,61.0,29.67,South,190,2.0,-999.0,29,-99.99,,,-99.99,,2013-07-28 03:32:00,
2013-07-27 20:42:00,98.0,59.0,29.68,SSW,200,3.0,-999.0,28,-99.99,,,-99.99,,2013-07-28 03:42:00,
2013-07-27 20:52:00,98.0,59.0,29.68,SSW,200,3.0,-999.0,28,-99.99,,,-99.99,,2013-07-28 03:52:00,
2013-07-27 21:02:00,98.0,60.0,29.68,SW,215,2.0,-999.0,29,-99.99,,,-99.99,,2013-07-28 04:02:00,
2013-07-27 21:12:00,97.0,59.0,29.69,SSW,194,3.0,-999.0,29,-99.99,,,-99.99,,2013-07-28 04:12:00,
2013-07-27 21:22:00,97.0,59.0,29.69,SSW,194,3.0,-999.0,29,-99.99,,,-99.99,,2013-07-28 04:22:00,
2013-07-27 21:32:00,97.0,59.0,29.69,SSW,196,2.0,-999.0,29,-99.99,,,-99.99,,2013-07-28 04:32:00,
2013-07-27 21:43:00,96.0,59.0,29.70,SSW,193,2.0,-999.0,30,-99.99,,,-99.99,,2013-07-28 04:43:00,
2013-07-27 21:53:00,96.0,61.0,29.70,SSW,192,1.0,-999.0,32,-99.99,,,-99.99,,2013-07-28 04:53:00,
2013-07-27 22:02:00,96.0,61.0,29.70,SSW,192,1.0,-999.0,32,-99.99,,,-99.99,,2013-07-28 05:02:00,
2013-07-27 22:12:00,94.0,62.0,29.70,SSW,192,0.0,-999.0,35,-99.99,,,-99.99,,2013-07-28 05:12:00,
2013-07-27 22:22:00,94.0,62.0,29.70,SSW,192,0.0,-999.0,35,-99.99,,,-99.99,,2013-07-28 05:22:00,
2013-07-27 23:22:00,90.0,62.0,29.71,East,100,0.0,-999.0,40,-99.99,,,-99.99,,2013-07-28 06:22:00,